Time;durP1;ratioP1;P1;durP2;ratioP2;P2;SDS_P1;SDS_P2;PMS_P1;PMS_P2;Temp;Humidity;BMP_temperature;BMP_pressure;BME280_temperature;BME280_humidity;BME280_pressure;Samples;Min_cycle;Max_cycle;Signal;HPM_P1;HPM_P2
2023/01/08 07:47:02;;;;;;;;;;;;;;;7.81;76.53;97389.03;5537458;23;19928;-63
2023/01/08 07:49:27;;;;;;;;;;;;;;;7.84;78.21;97388.81;4853297;29;19924;-63
2023/01/08 07:51:53;;;;;;;;;;;;;;;7.87;78.45;97392.13;4857603;29;19931;-63
2023/01/08 07:54:18;;;;;;;;;;;;;;;7.90;77.78;97390.13;4828097;29;19967;-63
2023/01/08 07:56:43;;;;;;;;;;;;;;;7.92;77.93;97396.09;4857970;29;19916;-63
2023/01/08 07:59:08;;;;;;;;;;;;;;;7.89;75.43;97403.31;4838050;29;20636;-64
2023/01/08 08:01:33;;;;;;;;;;;;;;;7.90;76.56;97403.19;4836025;29;19976;-64
2023/01/08 08:03:59;;;;;;;;;;;;;;;7.94;76.97;97401.19;4824810;29;20464;-64
2023/01/08 08:06:24;;;;;;;;;;;;;;;7.97;77.14;97390.53;4835134;29;20033;-64
2023/01/08 08:08:49;;;;;;;;;;;;;;;8.01;77.02;97394.59;4841323;29;19928;-63
2023/01/08 08:11:14;;;;;;;;;;;;;;;7.97;74.73;97393.13;4838449;29;19921;-63
2023/01/08 08:13:43;;;;;;;;;;;;;;;8.02;75.96;97398.88;4833381;29;19936;-64
2023/01/08 08:16:08;;;;;;;;;;;;;;;8.18;75.94;97396.00;4842018;29;19923;-64
2023/01/08 08:18:34;;;;;;;;;;;;;;;7.84;70.52;97399.25;4841175;29;19916;-65
2023/01/08 08:20:59;;;;;;;;;;;;;;;7.59;70.72;97401.88;4832637;29;19944;-65
2023/01/08 08:23:24;;;;;;;;;;;;;;;7.38;71.92;97384.16;4835757;29;19920;-64
2023/01/08 08:25:50;;;;;;;;;;;;;;;7.19;72.38;97381.16;4832041;29;19932;-64
2023/01/08 08:28:16;;;;;;;;;;;;;;;7.03;72.49;97385.72;4825529;29;19921;-64
2023/01/08 08:30:41;;;;;;;;;;;;;;;6.87;73.15;97391.94;4839244;29;20019;-64
2023/01/08 08:33:06;;;;;;;;;;;;;;;6.77;73.86;97388.28;4838500;29;20010;-65
2023/01/08 08:35:31;;;;;;;;;;;;;;;6.68;73.87;97383.69;4839747;29;19999;-66
2023/01/08 08:37:57;;;;;;;;;;;;;;;6.64;74.09;97377.00;4824429;29;19956;-65
2023/01/08 08:40:22;;;;;;;;;;;;;;;6.60;74.55;97380.75;4841314;29;19916;-65
2023/01/08 08:42:47;;;;;;;;;;;;;;;6.53;75.40;97371.66;4841750;29;19963;-65
2023/01/08 08:45:12;;;;;;;;;;;;;;;6.56;75.93;97368.84;4839029;29;19962;-65
2023/01/08 08:47:37;;;;;;;;;;;;;;;6.54;75.31;97362.94;4835259;29;19972;-66
2023/01/08 08:50:03;;;;;;;;;;;;;;;6.53;75.40;97354.25;4848830;29;19964;-66
2023/01/08 08:52:29;;;;;;;;;;;;;;;6.55;75.90;97354.16;4840607;29;20392;-65
2023/01/08 08:54:54;;;;;;;;;;;;;;;6.58;76.19;97341.78;4824671;29;19963;-66
2023/01/08 08:57:21;;;;;;;;;;;;;;;6.57;75.74;97341.84;4831250;29;19924;-66
2023/01/08 08:59:46;;;;;;;;;;;;;;;6.58;75.32;97361.78;4817117;29;19927;-66
2023/01/08 09:02:12;;;;;;;;;;;;;;;6.58;75.37;97360.00;4828453;29;19917;-66
2023/01/08 09:04:37;;;;;;;;;;;;;;;6.64;76.13;97350.94;4824345;29;19928;-66
2023/01/08 09:07:02;;;;;;;;;;;;;;;6.68;75.64;97357.63;4831050;29;20286;-65
2023/01/08 09:09:28;;;;;;;;;;;;;;;6.73;75.82;97363.34;4831529;29;20393;-65
2023/01/08 09:11:53;;;;;;;;;;;;;;;6.79;75.35;97359.53;4833627;29;19924;-65
2023/01/08 09:14:18;;;;;;;;;;;;;;;6.84;75.49;97367.84;4828823;29;20407;-66
2023/01/08 09:16:44;;;;;;;;;;;;;;;6.87;74.92;97363.28;4806866;29;19924;-66
2023/01/08 09:19:09;;;;;;;;;;;;;;;6.94;75.27;97365.47;4825141;29;19927;-67
2023/01/08 09:21:34;;;;;;;;;;;;;;;7.00;76.08;97375.50;4831767;29;19924;-66
2023/01/08 09:23:59;;;;;;;;;;;;;;;7.04;75.55;97371.75;4835829;29;19927;-66
2023/01/08 09:26:27;;;;;;;;;;;;;;;7.11;75.67;97360.78;4835505;29;19921;-66
2023/01/08 09:28:52;;;;;;;;;;;;;;;7.18;75.10;97361.19;4822605;29;20320;-66
2023/01/08 09:31:17;;;;;;;;;;;;;;;7.24;74.78;97367.78;4829666;29;19924;-65
2023/01/08 09:33:43;;;;;;;;;;;;;;;7.28;74.76;97370.06;4839172;29;20403;-66
2023/01/08 09:36:11;;;;;;;;;;;;;;;7.27;74.32;97378.84;4840954;29;19920;-66
2023/01/08 09:38:36;;;;;;;;;;;;;;;7.33;74.58;97386.25;4840833;29;19940;-66
2023/01/08 09:41:06;;;;;;;;;;;;;;;7.44;74.80;97382.06;4838295;29;19927;-65
2023/01/08 09:43:32;;;;;;;;;;;;;;;7.52;74.50;97384.97;4818359;29;19928;-65
2023/01/08 09:45:58;;;;;;;;;;;;;;;7.60;74.61;97383.53;4824852;29;19959;-65
2023/01/08 09:48:24;;;;;;;;;;;;;;;7.67;74.40;97377.84;4818378;29;19924;-65
2023/01/08 09:50:50;;;;;;;;;;;;;;;7.73;74.85;97372.22;4835140;29;19920;-66
2023/01/08 09:53:15;;;;;;;;;;;;;;;7.74;75.47;97369.50;4818039;29;20011;-65
2023/01/08 09:55:40;;;;;;;;;;;;;;;7.76;75.91;97372.81;4821657;29;19925;-65
2023/01/08 09:58:12;;;;;;;;;;;;;;;7.79;75.63;97364.78;4819359;29;20380;-66
2023/01/08 10:00:37;;;;;;;;;;;;;;;7.83;75.53;97363.63;4818429;29;19920;-66
2023/01/08 10:03:03;;;;;;;;;;;;;;;7.85;75.98;97366.97;4837709;29;20460;-66
2023/01/08 10:05:28;;;;;;;;;;;;;;;7.87;75.88;97358.19;4839446;29;20296;-66
2023/01/08 10:07:53;;;;;;;;;;;;;;;7.87;75.35;97358.19;4818743;29;19950;-66
2023/01/08 10:10:19;;;;;;;;;;;;;;;7.87;75.31;97355.56;4819614;29;19920;-65
2023/01/08 10:12:44;;;;;;;;;;;;;;;7.77;75.36;97355.38;4816029;29;19925;-66
2023/01/08 10:15:13;;;;;;;;;;;;;;;7.78;76.21;97357.91;4831791;29;19932;-66
2023/01/08 10:17:39;;;;;;;;;;;;;;;7.76;75.89;97351.13;4814510;29;19936;-67
2023/01/08 10:20:11;;;;;;;;;;;;;;;7.77;76.18;97340.56;4840223;29;19969;-67
2023/01/08 10:22:36;;;;;;;;;;;;;;;7.79;76.48;97345.69;4815643;29;19916;-66
2023/01/08 10:25:12;;;;;;;;;;;;;;;7.76;77.02;97336.28;4835593;29;20024;-67
2023/01/08 10:27:46;;;;;;;;;;;;;;;7.72;77.74;97332.22;4838530;29;20568;-64
2023/01/08 10:30:15;;;;;;;;;;;;;;;7.72;78.38;97334.84;4834384;29;19920;-65
2023/01/08 10:32:44;;;;;;;;;;;;;;;7.72;78.29;97328.78;4824719;29;19964;-65
2023/01/08 10:35:13;;;;;;;;;;;;;;;7.69;78.58;97319.38;4823540;29;19973;-66
2023/01/08 10:37:41;;;;;;;;;;;;;;;7.71;79.16;97314.91;4813949;29;19921;-66
2023/01/08 10:40:23;;;;;;;;;;;;;;;7.64;80.40;97326.72;4823589;29;19916;-65
2023/01/08 10:42:48;;;;;;;;;;;;;;;7.60;80.14;97320.03;4825447;29;19920;-65
2023/01/08 10:45:23;;;;;;;;;;;;;;;7.66;79.95;97311.78;4839153;29;19935;-65
2023/01/08 10:47:49;;;;;;;;;;;;;;;7.72;80.49;97311.34;4818482;29;20007;-64
2023/01/08 10:50:21;;;;;;;;;;;;;;;7.78;79.84;97303.09;4820890;29;20010;-66
2023/01/08 10:52:53;;;;;;;;;;;;;;;7.85;80.31;97306.91;4831176;29;19977;-65
2023/01/08 10:55:26;;;;;;;;;;;;;;;9.67;90.78;97301.97;4808608;29;19917;-62
2023/01/08 10:57:55;;;;;;;;;;;;;;;11.89;71.66;97307.06;4828353;29;19932;-64
2023/01/08 11:00:25;;;;;;;;;;;;;;;11.20;66.94;97299.06;4818142;29;19931;-66
2023/01/08 11:02:50;;;;;;;;;;;;;;;10.57;69.57;97286.81;4825699;29;20057;-64
2023/01/08 11:05:15;;;;;;;;;;;;;;;10.00;71.03;97290.59;4826380;29;20015;-64
2023/01/08 11:07:41;;;;;;;;;;;;;;;9.66;71.87;97282.81;4838067;29;19964;-68
2023/01/08 11:10:06;;;;;;;;;;;;;;;9.38;73.63;97273.69;4817993;29;19926;-66
2023/01/08 11:12:33;;;;;;;;;;;;;;;9.11;74.87;97274.03;4826014;29;19946;-66
2023/01/08 11:14:58;;;;;;;;;;;;;;;8.93;75.85;97270.25;4824601;29;20301;-66
2023/01/08 11:17:23;;;;;;;;;;;;;;;8.73;77.13;97269.13;4819712;29;20405;-65
2023/01/08 11:19:49;;;;;;;;;;;;;;;8.61;77.66;97275.31;4831535;29;19927;-65
2023/01/08 11:22:17;;;;;;;;;;;;;;;8.51;78.09;97262.09;4837447;29;19920;-65
2023/01/08 11:24:42;;;;;;;;;;;;;;;8.46;78.75;97261.59;4842528;29;19917;-65
2023/01/08 11:27:24;;;;;;;;;;;;;;;8.42;79.19;97270.63;4825459;29;19923;-65
2023/01/08 11:30:00;;;;;;;;;;;;;;;8.36;78.64;97263.19;4823345;29;20445;-65
2023/01/08 11:32:40;;;;;;;;;;;;;;;8.24;79.96;97273.63;4822712;29;19921;-65
2023/01/08 11:35:12;;;;;;;;;;;;;;;8.20;80.49;97277.41;4841652;29;20296;-65
2023/01/08 11:37:39;;;;;;;;;;;;;;;8.16;80.51;97275.13;4842848;29;19923;-65
2023/01/08 11:40:14;;;;;;;;;;;;;;;8.13;81.44;97268.34;4818850;29;20042;-65
2023/01/08 11:42:45;;;;;;;;;;;;;;;8.10;81.29;97263.34;4822258;29;19921;-65
2023/01/08 11:45:13;;;;;;;;;;;;;;;8.05;81.38;97262.84;4842376;29;19936;-65
2023/01/08 11:47:47;;;;;;;;;;;;;;;8.03;81.49;97254.31;4846592;29;19963;-65
2023/01/08 11:50:18;;;;;;;;;;;;;;;8.01;82.21;97250.97;4846783;29;19920;-65
2023/01/08 11:53:02;;;;;;;;;;;;;;;7.98;81.99;97241.59;4822139;29;19984;-65
2023/01/08 11:55:46;;;;;;;;;;;;;;;8.27;88.25;97244.66;4838191;29;19921;-65
2023/01/08 11:58:14;;;;;;;;;;;;;;;8.21;83.45;97232.03;4829350;29;19932;-65
2023/01/08 12:00:45;;;;;;;;;;;;;;;8.19;82.55;97233.94;4841297;29;19921;-65
2023/01/08 12:03:15;;;;;;;;;;;;;;;8.09;82.09;97222.53;4836663;29;20297;-65
2023/01/08 12:05:52;;;;;;;;;;;;;;;8.08;82.75;97228.66;4813477;29;19931;-65
2023/01/08 12:08:23;;;;;;;;;;;;;;;8.05;82.63;97221.91;4825631;29;20346;-65
2023/01/08 12:10:51;;;;;;;;;;;;;;;8.05;82.58;97213.22;4840074;29;19986;-66
2023/01/08 12:13:35;;;;;;;;;;;;;;;8.04;82.93;97209.78;4841637;29;20282;-65
2023/01/08 12:16:19;;;;;;;;;;;;;;;8.03;83.16;97213.34;4837577;29;19944;-66
2023/01/08 12:19:03;;;;;;;;;;;;;;;8.06;82.69;97209.69;4838058;29;19943;-65
2023/01/08 12:21:32;;;;;;;;;;;;;;;8.08;82.72;97200.78;4837087;29;19923;-65
2023/01/08 12:24:16;;;;;;;;;;;;;;;8.10;83.37;97195.44;4805973;29;19917;-66
2023/01/08 12:26:44;;;;;;;;;;;;;;;8.11;82.74;97194.50;4831971;29;19973;-65
2023/01/08 12:29:09;;;;;;;;;;;;;;;8.13;83.01;97200.44;4837661;29;19965;-65
2023/01/08 12:31:34;;;;;;;;;;;;;;;8.13;83.16;97189.16;4822482;29;19917;-65
2023/01/08 12:34:04;;;;;;;;;;;;;;;8.16;83.33;97187.16;4805548;29;19933;-66
2023/01/08 12:36:32;;;;;;;;;;;;;;;8.18;82.78;97193.09;4813391;29;19927;-65
2023/01/08 12:38:59;;;;;;;;;;;;;;;8.21;82.96;97194.66;4820037;29;20350;-65
2023/01/08 12:41:24;;;;;;;;;;;;;;;8.22;83.30;97180.63;4823688;29;19920;-65
2023/01/08 12:44:08;;;;;;;;;;;;;;;8.30;83.18;97180.91;4838483;29;19916;-66
2023/01/08 12:46:34;;;;;;;;;;;;;;;8.38;83.09;97181.16;4829756;29;20362;-65
2023/01/08 12:48:59;;;;;;;;;;;;;;;8.45;82.83;97176.31;4810003;29;20428;-66
2023/01/08 12:51:24;;;;;;;;;;;;;;;8.49;83.02;97172.50;4823297;29;19917;-66
2023/01/08 12:53:55;;;;;;;;;;;;;;;8.53;82.78;97166.09;4839987;29;19930;-66
2023/01/08 12:56:59;;;;;;;;;;;;;;;8.58;82.45;97169.19;4823547;29;19916;-65
2023/01/08 12:59:42;;;;;;;;;;;;;;;8.61;82.57;97171.59;4768423;29;20432;-65
2023/01/08 13:02:31;;;;;;;;;;;;;;;8.59;82.49;97180.47;4770247;30;20387;-65
2023/01/08 13:04:56;;;;;;;;;;;;;;;8.56;81.66;97168.47;4749072;30;19937;-66
2023/01/08 13:07:22;;;;;;;;;;;;;;;8.56;82.59;97171.09;4748195;30;19919;-66
2023/01/08 13:09:59;;;;;;;;;;;;;;;8.54;83.15;97171.22;4743609;30;20458;-66
2023/01/08 13:12:31;;;;;;;;;;;;;;;8.54;83.64;97165.16;4749794;30;20315;-66
2023/01/08 13:14:57;;;;;;;;;;;;;;;8.58;83.67;97160.53;4745292;30;19922;-66
2023/01/08 13:17:23;;;;;;;;;;;;;;;8.63;83.68;97159.22;4763813;30;20229;-66
2023/01/08 13:19:52;;;;;;;;;;;;;;;8.67;83.40;97160.66;4760089;30;19922;-66
2023/01/08 13:22:28;;;;;;;;;;;;;;;8.72;83.35;97158.50;4762169;30;19933;-66
2023/01/08 13:25:08;;;;;;;;;;;;;;;8.77;83.35;97150.28;4753864;30;20003;-66
2023/01/08 13:27:33;;;;;;;;;;;;;;;8.82;83.30;97152.56;4770046;30;19921;-67
2023/01/08 13:29:58;;;;;;;;;;;;;;;8.86;83.22;97143.53;4777078;29;20277;-66
2023/01/08 13:32:33;;;;;;;;;;;;;;;8.90;83.14;97139.72;4836610;29;19992;-66
2023/01/08 13:35:07;;;;;;;;;;;;;;;8.89;82.92;97136.28;4832097;29;19921;-66
2023/01/08 13:37:32;;;;;;;;;;;;;;;8.87;83.15;97130.31;4839646;29;19917;-66
2023/01/08 13:39:57;;;;;;;;;;;;;;;8.86;83.14;97127.84;4839380;29;20300;-66
2023/01/08 13:42:23;;;;;;;;;;;;;;;8.83;83.00;97133.31;4818554;29;19924;-66
2023/01/08 13:44:49;;;;;;;;;;;;;;;8.80;83.08;97132.59;4820955;29;19921;-66
2023/01/08 13:47:19;;;;;;;;;;;;;;;8.77;82.29;97132.00;4849612;29;19972;-66
2023/01/08 13:49:44;;;;;;;;;;;;;;;8.76;82.39;97130.34;4827968;29;20396;-66
2023/01/08 13:52:25;;;;;;;;;;;;;;;8.74;82.65;97120.03;4817594;29;20003;-66
2023/01/08 13:54:50;;;;;;;;;;;;;;;8.70;82.45;97115.94;4838045;29;19956;-66
2023/01/08 13:57:16;;;;;;;;;;;;;;;8.67;82.77;97112.75;4830021;29;19955;-66
2023/01/08 13:59:42;;;;;;;;;;;;;;;8.63;82.88;97108.72;4822935;29;20369;-66
2023/01/08 14:02:37;;;;;;;;;;;;;;;8.60;83.26;97117.63;4804824;29;19924;-66
2023/01/08 14:05:10;;;;;;;;;;;;;;;8.57;83.16;97117.88;4823749;29;19924;-66
2023/01/08 14:07:36;;;;;;;;;;;;;;;8.53;83.24;97112.06;4819917;29;19920;-66
2023/01/08 14:10:05;;;;;;;;;;;;;;;8.52;83.00;97110.38;4838951;29;20308;-66
2023/01/08 14:12:30;;;;;;;;;;;;;;;8.51;83.41;97113.13;4834290;29;20381;-66
2023/01/08 14:14:56;;;;;;;;;;;;;;;8.52;83.43;97109.56;4810489;29;19921;-66
2023/01/08 14:17:22;;;;;;;;;;;;;;;8.50;83.22;97106.25;4826027;29;19965;-66
2023/01/08 14:19:47;;;;;;;;;;;;;;;8.50;83.18;97101.84;4826922;29;19916;-66
2023/01/08 14:22:17;;;;;;;;;;;;;;;8.47;82.97;97101.25;4842819;29;19972;-66
2023/01/08 14:24:42;;;;;;;;;;;;;;;8.44;83.33;97106.72;4807739;29;19972;-66
2023/01/08 14:27:17;;;;;;;;;;;;;;;8.42;83.44;97113.84;4836137;29;19924;-65
2023/01/08 14:29:43;;;;;;;;;;;;;;;8.39;83.25;97116.69;4822194;29;19925;-66
2023/01/08 14:32:15;;;;;;;;;;;;;;;8.35;82.73;97107.38;4840133;29;19945;-66
2023/01/08 14:34:40;;;;;;;;;;;;;;;8.30;83.33;97111.19;4818844;29;19963;-67
2023/01/08 14:37:09;;;;;;;;;;;;;;;8.23;83.51;97123.06;4823140;29;19967;-66
2023/01/08 14:39:37;;;;;;;;;;;;;;;8.19;83.59;97116.41;4825498;29;19943;-66
2023/01/08 14:43:15;;;;;;;;;;;;;;;8.14;83.67;97121.13;4843117;29;19975;-66
2023/01/08 14:45:11;;;;;;;;;;;;;;;8.09;83.64;97124.09;4830324;29;19921;-66
2023/01/08 14:47:37;;;;;;;;;;;;;;;8.04;83.94;97120.16;4828924;29;19928;-66
2023/01/08 14:50:03;;;;;;;;;;;;;;;8.01;83.78;97109.94;4814998;29;20287;-66
2023/01/08 14:52:28;;;;;;;;;;;;;;;8.00;84.18;97108.28;4844426;29;20003;-66
2023/01/08 14:54:54;;;;;;;;;;;;;;;7.98;84.20;97112.78;4827417;29;19920;-67
2023/01/08 14:57:20;;;;;;;;;;;;;;;7.96;83.96;97117.31;4812678;29;19920;-65
2023/01/08 14:59:47;;;;;;;;;;;;;;;7.95;85.43;97108.66;4823222;29;19926;-66
2023/01/08 15:02:17;;;;;;;;;;;;;;;7.97;84.77;97105.91;4824410;29;19925;-65
2023/01/08 15:04:42;;;;;;;;;;;;;;;7.96;84.64;97092.03;4822167;29;20427;-66
2023/01/08 16:35:31;;;;;;;;;;;;;;;10.61;72.65;97020.75;5156486;23;19929;-66
2023/01/08 16:37:56;;;;;;;;;;;;;;;9.98;73.04;97022.69;4855693;29;19924;-66
2023/01/08 16:40:22;;;;;;;;;;;;;;;9.51;74.46;97014.41;4858484;29;19920;-66
2023/01/08 16:42:47;;;;;;;;;;;;;;;9.12;75.66;97019.38;4859772;29;20299;-65
2023/01/08 16:45:12;;;;;;;;;;;;;;;8.80;76.62;97025.38;4859507;29;19916;-67
2023/01/08 16:47:38;;;;;;;;;;;;;;;8.54;78.15;97018.81;4849872;29;20064;-65
2023/01/08 16:50:03;;;;;;;;;;;;;;;8.32;79.28;97017.84;4836939;29;19927;-66
2023/01/08 16:52:28;;;;;;;;;;;;;;;8.17;80.00;97016.44;4858608;29;19928;-66
2023/01/08 16:54:53;;;;;;;;;;;;;;;8.01;80.68;97001.09;4859163;29;20295;-66
2023/01/08 16:57:18;;;;;;;;;;;;;;;7.88;81.30;96999.56;4859703;29;19916;-66
2023/01/08 16:59:44;;;;;;;;;;;;;;;7.78;81.67;96992.44;4824432;29;19943;-66
2023/01/08 17:02:09;;;;;;;;;;;;;;;7.73;82.75;96984.13;4859032;29;19916;-66
2023/01/08 17:04:34;;;;;;;;;;;;;;;7.67;82.89;96979.38;4839532;29;19924;-66
2023/01/08 17:06:59;;;;;;;;;;;;;;;7.61;83.34;96982.47;4856358;29;19946;-66
2023/01/08 17:09:25;;;;;;;;;;;;;;;7.57;83.31;96973.19;4842468;29;19924;-66
2023/01/08 17:11:50;;;;;;;;;;;;;;;7.54;83.39;96968.22;4854634;29;20392;-66
2023/01/08 17:14:15;;;;;;;;;;;;;;;7.50;84.30;96964.16;4858377;29;20377;-66
2023/01/08 17:16:41;;;;;;;;;;;;;;;7.48;84.59;96964.28;4852727;29;20408;-66
2023/01/08 17:19:06;;;;;;;;;;;;;;;7.45;84.70;96958.47;4827602;29;19916;-66
2023/01/08 17:21:32;;;;;;;;;;;;;;;7.43;84.33;96962.97;4847025;29;20536;-66
2023/01/08 17:23:57;;;;;;;;;;;;;;;7.41;84.20;96950.06;4839236;29;19920;-66
2023/01/08 17:26:23;;;;;;;;;;;;;;;7.38;84.49;96950.28;4860646;29;19938;-66
2023/01/08 17:28:48;;;;;;;;;;;;;;;7.35;84.45;96945.28;4851721;29;19919;-66
2023/01/08 17:31:14;;;;;;;;;;;;;;;7.31;84.85;96933.44;4850503;29;20015;-66
2023/01/08 17:33:39;;;;;;;;;;;;;;;7.31;84.36;96934.25;4835431;29;20056;-67
2023/01/08 17:36:14;;;;;;;;;;;;;;;7.24;84.77;96933.06;4859926;29;19988;-66
2023/01/08 17:38:39;;;;;;;;;;;;;;;7.23;84.57;96927.97;4857518;29;19928;-66
2023/01/08 17:41:06;;;;;;;;;;;;;;;7.17;84.78;96921.44;4859714;29;19916;-66
2023/01/08 17:43:32;;;;;;;;;;;;;;;7.14;85.08;96919.06;4855775;29;20399;-66
2023/01/08 17:46:00;;;;;;;;;;;;;;;7.11;84.72;96911.47;4843073;29;19920;-66
2023/01/08 17:48:25;;;;;;;;;;;;;;;7.08;84.89;96912.50;4842834;29;19917;-66
2023/01/08 17:50:50;;;;;;;;;;;;;;;7.05;85.37;96912.72;4860368;29;20007;-66
2023/01/08 17:53:15;;;;;;;;;;;;;;;7.03;84.72;96908.59;4855887;29;20014;-65
2023/01/08 17:55:40;;;;;;;;;;;;;;;7.01;85.21;96910.47;4862635;29;20010;-66
2023/01/08 17:58:06;;;;;;;;;;;;;;;6.98;85.34;96908.94;4862219;29;19920;-66
2023/01/08 18:00:31;;;;;;;;;;;;;;;6.93;85.37;96903.25;4863348;29;19922;-66
2023/01/08 18:02:56;;;;;;;;;;;;;;;6.91;85.54;96899.91;4861042;29;19917;-66
2023/01/08 18:05:21;;;;;;;;;;;;;;;6.89;85.47;96907.84;4851725;29;19920;-66
2023/01/08 18:07:46;;;;;;;;;;;;;;;6.90;85.65;96909.50;4862859;29;19923;-66
2023/01/08 18:10:12;;;;;;;;;;;;;;;6.88;84.92;96900.13;4844299;29;19998;-66
2023/01/08 18:12:37;;;;;;;;;;;;;;;6.89;85.46;96888.78;4860304;29;20031;-66
2023/01/08 18:15:03;;;;;;;;;;;;;;;6.89;85.67;96887.00;4859470;29;20011;-66
2023/01/08 18:17:29;;;;;;;;;;;;;;;6.89;85.75;96892.22;4860423;29;20025;-65
2023/01/08 18:19:55;;;;;;;;;;;;;;;6.90;85.82;96890.44;4853525;29;20370;-66
2023/01/08 18:22:20;;;;;;;;;;;;;;;6.88;85.97;96885.34;4858483;29;19916;-66
2023/01/08 18:24:45;;;;;;;;;;;;;;;6.88;85.28;96880.13;4830563;29;19945;-66
2023/01/08 18:27:11;;;;;;;;;;;;;;;6.86;85.24;96884.63;4859978;29;19970;-66
2023/01/08 18:29:36;;;;;;;;;;;;;;;6.87;85.70;96893.25;4856418;29;19958;-66
2023/01/08 18:32:01;;;;;;;;;;;;;;;6.86;86.16;96887.22;4862669;29;19959;-66
2023/01/08 18:34:26;;;;;;;;;;;;;;;6.87;86.07;96904.50;4845491;29;19962;-66
2023/01/08 18:36:51;;;;;;;;;;;;;;;6.88;85.25;96900.13;4862840;29;20037;-66
2023/01/08 18:39:17;;;;;;;;;;;;;;;6.87;86.02;96898.47;4860459;29;19924;-66
2023/01/08 18:44:26;;;;;;;;;;;;;;;6.86;84.98;96886.41;4861579;29;19927;-66
2023/01/08 18:46:51;;;;;;;;;;;;;;;6.85;85.15;96880.34;4861727;29;19921;-66
2023/01/08 18:49:16;;;;;;;;;;;;;;;6.86;84.78;96882.00;4855025;29;20022;-66
2023/01/08 18:51:42;;;;;;;;;;;;;;;6.85;85.29;96885.56;4861336;29;19951;-66
2023/01/08 18:54:07;;;;;;;;;;;;;;;6.86;84.49;96889.84;4849975;29;19924;-66
2023/01/08 18:56:33;;;;;;;;;;;;;;;6.85;84.91;96890.78;4858180;29;20368;-66
2023/01/08 18:58:58;;;;;;;;;;;;;;;6.84;85.17;96883.88;4845942;29;19927;-66
2023/01/08 19:01:23;;;;;;;;;;;;;;;6.83;84.28;96881.41;4845613;29;19916;-66
2023/01/08 19:03:48;;;;;;;;;;;;;;;6.80;84.46;96877.25;4832265;29;19943;-66
2023/01/08 19:06:14;;;;;;;;;;;;;;;6.79;84.56;96870.38;4855691;29;19943;-66
2023/01/08 19:08:40;;;;;;;;;;;;;;;6.78;84.95;96858.31;4843878;29;19920;-66
2023/01/08 19:11:05;;;;;;;;;;;;;;;6.78;84.81;96847.88;4861885;29;19916;-66
2023/01/08 19:13:30;;;;;;;;;;;;;;;6.78;84.83;96850.50;4861908;29;19927;-66
2023/01/08 19:15:57;;;;;;;;;;;;;;;6.79;84.32;96849.53;4844526;29;19928;-66
2023/01/08 19:18:22;;;;;;;;;;;;;;;6.78;84.59;96837.47;4862090;29;19994;-66
2023/01/08 19:20:48;;;;;;;;;;;;;;;6.78;84.61;96832.25;4862071;29;19940;-66
2023/01/08 19:23:14;;;;;;;;;;;;;;;6.79;84.17;96839.13;4840232;29;19939;-66
2023/01/08 19:25:39;;;;;;;;;;;;;;;6.79;84.96;96831.28;4842947;29;19924;-66
2023/01/08 19:28:04;;;;;;;;;;;;;;;6.78;84.83;96821.81;4844290;29;19920;-65
2023/01/08 19:30:30;;;;;;;;;;;;;;;6.79;84.77;96823.47;4836896;29;19920;-66
2023/01/08 19:32:55;;;;;;;;;;;;;;;6.78;84.66;96810.53;4839859;29;20048;-66
2023/01/08 19:35:20;;;;;;;;;;;;;;;6.76;84.33;96807.25;4859928;29;19924;-66
2023/01/08 19:37:45;;;;;;;;;;;;;;;6.74;84.98;96799.53;4840307;29;19924;-66
2023/01/08 19:40:11;;;;;;;;;;;;;;;6.72;84.97;96800.59;4861769;29;19920;-66
2023/01/08 19:45:20;;;;;;;;;;;;;;;6.69;84.95;96812.09;4861260;29;20448;-66
2023/01/08 19:47:47;;;;;;;;;;;;;;;6.69;84.50;96801.66;4845993;29;20129;-66
2023/01/08 19:50:12;;;;;;;;;;;;;;;6.65;84.80;96800.22;4843839;29;20023;-66
2023/01/08 19:52:37;;;;;;;;;;;;;;;6.63;83.91;96807.31;4844590;29;19924;-66
2023/01/08 19:55:03;;;;;;;;;;;;;;;6.63;83.80;96809.94;4835463;29;19966;-66
2023/01/08 19:57:28;;;;;;;;;;;;;;;6.64;84.08;96816.78;4843010;29;19921;-66
2023/01/08 19:59:53;;;;;;;;;;;;;;;6.63;84.40;96817.75;4842928;29;19916;-66
2023/01/08 20:02:18;;;;;;;;;;;;;;;6.63;84.30;96817.75;4842812;29;19965;-66
2023/01/08 20:04:44;;;;;;;;;;;;;;;6.64;84.75;96817.66;4855138;29;20019;-66
2023/01/08 20:07:09;;;;;;;;;;;;;;;6.64;84.19;96815.03;4861092;29;19927;-66
2023/01/08 20:09:34;;;;;;;;;;;;;;;6.64;84.62;96807.22;4844644;29;19922;-66
2023/01/08 20:12:00;;;;;;;;;;;;;;;6.65;84.51;96805.44;4861031;29;19965;-66
2023/01/08 20:14:25;;;;;;;;;;;;;;;6.63;84.70;96802.94;4838876;29;19928;-66
2023/01/08 20:16:50;;;;;;;;;;;;;;;6.64;84.38;96803.75;4856881;29;20026;-66
2023/01/08 20:19:16;;;;;;;;;;;;;;;6.64;84.27;96796.81;4837216;29;20087;-66
2023/01/08 20:21:41;;;;;;;;;;;;;;;6.66;84.22;96787.06;4844019;29;20027;-67
2023/01/08 20:24:11;;;;;;;;;;;;;;;6.64;84.32;96785.53;4860775;29;19959;-66
2023/01/08 20:26:36;;;;;;;;;;;;;;;6.64;83.59;96775.09;4860875;29;19972;-66
2023/01/08 20:29:01;;;;;;;;;;;;;;;6.62;84.28;96764.00;4849566;29;19920;-66
2023/01/08 20:31:31;;;;;;;;;;;;;;;6.60;83.64;96758.06;4860826;29;20296;-66
2023/01/08 20:33:56;;;;;;;;;;;;;;;6.58;83.72;96747.75;4860191;29;19968;-67
2023/01/08 20:36:22;;;;;;;;;;;;;;;6.60;83.95;96739.81;4834476;29;19920;-66
2023/01/08 20:38:54;;;;;;;;;;;;;;;6.59;84.46;96743.38;4860371;29;20285;-66
2023/01/08 20:41:19;;;;;;;;;;;;;;;6.58;84.08;96728.69;4845599;29;20008;-66
2023/01/08 20:43:44;;;;;;;;;;;;;;;6.56;84.07;96728.78;4860376;29;20017;-66
2023/01/08 20:46:12;;;;;;;;;;;;;;;6.54;84.24;96719.47;4851236;29;20389;-66
2023/01/08 20:48:37;;;;;;;;;;;;;;;6.52;83.80;96721.34;4857053;29;19968;-66
2023/01/08 20:51:03;;;;;;;;;;;;;;;6.51;84.23;96707.50;4860380;29;20011;-67
2023/01/08 20:53:29;;;;;;;;;;;;;;;6.51;84.29;96719.69;4842196;29;19931;-67
2023/01/08 20:55:54;;;;;;;;;;;;;;;6.50;84.23;96712.81;4848802;29;19920;-66
2023/01/08 20:58:19;;;;;;;;;;;;;;;6.48;83.16;96719.91;4849048;29;19921;-66
2023/01/08 21:00:44;;;;;;;;;;;;;;;6.45;83.56;96713.16;4842113;29;19923;-66
2023/01/08 21:03:10;;;;;;;;;;;;;;;6.45;83.50;96714.94;4860100;29;20345;-66
2023/01/08 21:05:35;;;;;;;;;;;;;;;6.42;83.71;96716.00;4854423;29;20270;-67
2023/01/08 21:08:01;;;;;;;;;;;;;;;6.41;83.92;96707.34;4839914;29;20344;-66
2023/01/08 21:10:26;;;;;;;;;;;;;;;6.41;83.89;96702.16;4834141;29;19966;-66
